Time;durP1;ratioP1;P1;durP2;ratioP2;P2;SDS_P1;SDS_P2;PMS_P1;PMS_P2;Temp;Humidity;BMP_temperature;BMP_pressure;BME280_temperature;BME280_humidity;BME280_pressure;Samples;Min_cycle;Max_cycle;Signal;HPM_P1;HPM_P2
2023/09/30 00:01:11;;;;;;;353.63;339.85;;;;;;;27.20;49.25;99442.75;4932978;28;103639;-68
2023/09/30 00:03:39;;;;;;;380.73;364.85;;;;;;;27.08;49.25;99444.34;4906128;28;103756;-67
2023/09/30 00:06:09;;;;;;;513.03;491.30;;;;;;;26.65;51.15;99449.81;4909985;28;102798;-67
2023/09/30 00:08:39;;;;;;;444.35;425.58;;;;;;;26.92;50.03;99446.31;4905580;28;103682;-68
2023/09/30 00:11:07;;;;;;;449.80;430.92;;;;;;;26.84;50.40;99438.34;4907538;28;103146;-68
2023/09/30 00:13:35;;;;;;;478.53;459.37;;;;;;;26.25;51.61;99439.63;4912256;28;103013;-67
2023/09/30 00:16:03;;;;;;;530.35;510.13;;;;;;;26.35;52.18;99437.47;4909140;28;102658;-67
2023/09/30 00:18:31;;;;;;;637.28;612.10;;;;;;;26.40;51.90;99435.00;4911189;28;103826;-68
2023/09/30 00:20:59;;;;;;;721.45;691.05;;;;;;;25.89;53.26;99443.19;4905868;28;104326;-67
2023/09/30 00:23:27;;;;;;;753.03;719.67;;;;;;;25.48;54.57;99450.19;4910594;28;102756;-67
2023/09/30 00:25:56;;;;;;;711.67;682.10;;;;;;;26.25;52.22;99442.34;4916636;28;102889;-67
2023/09/30 00:28:24;;;;;;;502.83;484.70;;;;;;;26.59;51.43;99437.06;4909091;28;103327;-67
2023/09/30 00:30:52;;;;;;;405.60;391.15;;;;;;;26.66;51.58;99446.09;4907366;28;104593;-67
2023/09/30 00:33:21;;;;;;;455.13;438.55;;;;;;;26.24;51.65;99443.41;4917626;28;102734;-67
2023/09/30 00:35:49;;;;;;;448.48;432.20;;;;;;;26.30;51.85;99439.91;4911920;28;103820;-67
2023/09/30 00:38:17;;;;;;;486.10;468.20;;;;;;;26.06;52.33;99446.50;4911938;28;104282;-67
2023/09/30 00:40:49;;;;;;;512.60;493.73;;;;;;;26.13;52.34;99449.28;4907590;28;103409;-67
2023/09/30 00:43:22;;;;;;;655.47;629.65;;;;;;;25.80;53.48;99454.31;4912107;28;102741;-66
2023/09/30 00:45:52;;;;;;;695.58;668.50;;;;;;;26.06;52.28;99442.94;4919548;28;103974;-66
2023/09/30 00:48:20;;;;;;;634.90;610.45;;;;;;;26.24;51.85;99446.94;4924452;28;103409;-67
2023/09/30 00:50:49;;;;;;;454.95;438.63;;;;;;;26.52;50.74;99447.00;4924674;28;103256;-66
2023/09/30 00:53:17;;;;;;;566.45;545.38;;;;;;;26.17;52.08;99445.19;4915773;28;102590;-67
2023/09/30 00:55:45;;;;;;;608.42;585.67;;;;;;;26.24;51.50;99457.78;4923236;28;103042;-68
2023/09/30 00:58:14;;;;;;;422.35;407.38;;;;;;;26.39;51.06;99455.00;4912281;28;103841;-67
2023/09/30 01:00:43;;;;;;;470.95;453.83;;;;;;;26.24;51.41;99446.09;4919626;28;103255;-67
2023/09/30 01:03:12;;;;;;;395.77;381.70;;;;;;;26.39;50.93;99444.16;4914072;28;102660;-67
2023/09/30 01:05:45;;;;;;;321.95;310.75;;;;;;;26.50;50.39;99457.19;4914740;28;103967;-66
2023/09/30 01:08:13;;;;;;;279.20;269.58;;;;;;;26.50;50.06;99451.75;4911263;28;104059;-67
2023/09/30 01:10:41;;;;;;;288.03;278.03;;;;;;;26.45;50.51;99446.09;4917405;28;103417;-65
2023/09/30 01:13:09;;;;;;;276.58;266.98;;;;;;;26.30;50.43;99450.75;4913162;28;103013;-66
2023/09/30 01:15:37;;;;;;;459.42;442.27;;;;;;;26.08;50.88;99452.56;4918120;28;104689;-66
2023/09/30 01:18:07;;;;;;;526.05;506.55;;;;;;;25.55;52.20;99461.06;4917477;28;104294;-66
2023/09/30 01:20:35;;;;;;;847.30;810.85;;;;;;;25.44;52.60;99465.06;4919168;28;104304;-66
2023/09/30 01:23:05;;;;;;;712.05;683.20;;;;;;;25.58;51.60;99461.53;4912448;28;102756;-66
2023/09/30 01:25:38;;;;;;;868.80;829.70;;;;;;;24.27;56.12;99453.16;4933382;28;103331;-66
2023/09/30 01:28:10;;;;;;;1214.30;999.90;;;;;;;24.52;56.39;99442.00;4911743;28;103301;-66
2023/09/30 01:30:38;;;;;;;802.65;768.88;;;;;;;25.27;53.88;99444.63;4917125;28;103955;-66
2023/09/30 01:33:07;;;;;;;706.47;677.15;;;;;;;25.57;52.11;99449.03;4909688;28;102713;-66
2023/09/30 01:35:35;;;;;;;830.08;794.72;;;;;;;25.10;54.19;99446.69;4909563;28;102858;-66
2023/09/30 01:38:07;;;;;;;871.47;833.63;;;;;;;25.01;54.01;99441.56;4907808;28;104312;-66
2023/09/30 01:40:37;;;;;;;1096.60;999.90;;;;;;;24.26;56.65;99452.31;4912633;28;103283;-66
2023/09/30 01:43:05;;;;;;;1461.85;999.90;;;;;;;23.39;60.67;99448.03;4925160;28;102863;-66
2023/09/30 01:45:35;;;;;;;1262.22;999.90;;;;;;;23.61;60.66;99451.81;4907304;28;103295;-66
2023/09/30 01:48:04;;;;;;;1134.20;999.90;;;;;;;24.00;59.57;99457.19;4908592;28;104164;-66
2023/09/30 01:50:32;;;;;;;1458.50;999.90;;;;;;;23.29;62.03;99457.31;4915930;28;103188;-66
2023/09/30 01:53:00;;;;;;;1154.25;999.90;;;;;;;23.35;61.13;99467.41;4910157;28;103234;-66
2023/09/30 01:55:29;;;;;;;1041.65;984.25;;;;;;;23.98;59.62;99459.22;4910417;28;102727;-66
2023/09/30 01:57:58;;;;;;;937.78;889.72;;;;;;;24.52;57.32;99452.78;4908627;28;105040;-66
2023/09/30 02:00:28;;;;;;;846.95;808.88;;;;;;;25.07;54.52;99457.03;4907627;28;105075;-67
2023/09/30 02:02:56;;;;;;;984.00;931.78;;;;;;;24.32;57.66;99457.00;4915347;28;102749;-67
2023/09/30 02:05:25;;;;;;;1282.53;999.90;;;;;;;23.84;59.25;99457.28;4908442;28;104217;-67
2023/09/30 02:07:53;;;;;;;1459.53;999.90;;;;;;;23.66;59.92;99444.88;4910861;28;103193;-67
2023/09/30 02:10:24;;;;;;;1043.05;984.47;;;;;;;23.92;58.33;99449.13;4910337;28;103188;-67
2023/09/30 02:12:54;;;;;;;1182.68;999.90;;;;;;;24.08;58.57;99449.03;4909601;28;102962;-67
2023/09/30 02:15:22;;;;;;;997.30;945.03;;;;;;;24.35;57.72;99445.00;4911652;28;103763;-67
2023/09/30 02:17:50;;;;;;;896.40;853.03;;;;;;;24.61;55.75;99457.13;4909401;28;104163;-67
2023/09/30 02:20:21;;;;;;;935.15;888.65;;;;;;;24.51;55.84;99461.06;4909248;28;103216;-67
2023/09/30 02:22:51;;;;;;;1006.85;952.28;;;;;;;23.65;58.00;99462.09;4909416;28;102782;-67
2023/09/30 02:25:19;;;;;;;1090.22;999.90;;;;;;;24.10;57.33;99463.22;4907454;28;102600;-66
2023/09/30 02:27:47;;;;;;;1172.43;999.90;;;;;;;23.58;59.22;99463.81;4917081;28;104073;-66
2023/09/30 02:30:17;;;;;;;975.72;925.10;;;;;;;23.91;58.37;99469.06;4907995;28;104246;-66
2023/09/30 02:32:46;;;;;;;946.60;898.58;;;;;;;24.40;57.50;99462.34;4909486;28;103178;-66
2023/09/30 02:35:15;;;;;;;900.00;857.17;;;;;;;24.68;56.36;99468.84;4907317;28;104469;-67
2023/09/30 02:37:44;;;;;;;873.95;833.75;;;;;;;24.81;55.77;99464.72;4909675;28;103337;-67
2023/09/30 02:40:14;;;;;;;855.60;817.45;;;;;;;25.05;54.76;99470.72;4909265;28;104317;-67
2023/09/30 02:42:42;;;;;;;856.33;818.25;;;;;;;24.98;55.46;99474.38;4908563;28;104108;-68
2023/09/30 02:45:12;;;;;;;901.40;858.25;;;;;;;24.79;56.14;99467.56;4907608;28;103892;-67
2023/09/30 02:47:41;;;;;;;922.88;878.38;;;;;;;24.76;56.36;99473.34;4907403;28;103248;-67
2023/09/30 02:50:11;;;;;;;872.30;833.42;;;;;;;25.06;55.19;99467.03;4908995;28;103104;-67
2023/09/30 02:52:40;;;;;;;906.60;863.50;;;;;;;24.82;55.21;99466.41;4912219;28;103085;-66
2023/09/30 02:55:10;;;;;;;925.40;880.53;;;;;;;24.76;56.00;99468.78;4905470;28;104056;-66
2023/09/30 02:57:38;;;;;;;1069.07;999.90;;;;;;;24.27;58.38;99470.19;4904513;28;103959;-67
2023/09/30 03:00:15;;;;;;;923.92;879.55;;;;;;;24.97;56.06;99467.28;4925584;28;103398;-66
2023/09/30 03:02:44;;;;;;;937.40;891.28;;;;;;;24.72;56.20;99462.06;4911780;28;102689;-66
2023/09/30 03:05:13;;;;;;;856.92;818.90;;;;;;;25.14;54.91;99468.78;4908682;28;102752;-67
2023/09/30 03:07:42;;;;;;;755.13;723.53;;;;;;;25.40;54.12;99480.00;4906547;28;103650;-67
2023/09/30 03:10:11;;;;;;;766.25;733.67;;;;;;;25.35;53.66;99482.41;4904991;28;104110;-67
2023/09/30 03:12:40;;;;;;;719.13;689.37;;;;;;;25.48;53.25;99487.19;4909009;28;103029;-67
2023/09/30 03:15:09;;;;;;;810.08;775.17;;;;;;;25.33;54.24;99495.28;4909235;28;104216;-66
2023/09/30 03:17:37;;;;;;;772.75;740.65;;;;;;;25.49;53.63;99500.53;4910277;28;103328;-67
2023/09/30 03:20:11;;;;;;;709.08;679.85;;;;;;;25.58;53.22;99504.81;4909567;28;103082;-67
2023/09/30 03:22:40;;;;;;;809.67;775.15;;;;;;;25.46;53.89;99508.16;4913255;28;102770;-67
2023/09/30 03:25:09;;;;;;;986.95;935.42;;;;;;;24.61;56.16;99510.28;4913137;28;103650;-67
2023/09/30 03:27:38;;;;;;;1999.90;999.90;;;;;;;23.37;61.63;99503.97;4909908;28;103929;-67
2023/09/30 03:30:08;;;;;;;1999.90;999.90;;;;;;;24.06;60.80;99505.88;4909406;28;103268;-68
2023/09/30 03:32:38;;;;;;;1363.60;999.90;;;;;;;24.65;58.41;99506.19;4905273;28;102655;-67
2023/09/30 03:35:10;;;;;;;869.00;829.17;;;;;;;25.19;55.35;99515.88;4914360;28;103711;-67
2023/09/30 03:37:38;;;;;;;791.97;758.22;;;;;;;25.40;54.46;99511.59;4908335;28;103762;-67
2023/09/30 03:40:14;;;;;;;830.80;794.47;;;;;;;25.34;54.38;99513.19;4912466;28;103259;-67
2023/09/30 03:42:43;;;;;;;870.85;831.10;;;;;;;25.38;54.82;99506.38;4912773;28;102731;-67
2023/09/30 03:45:13;;;;;;;818.40;782.57;;;;;;;25.43;54.33;99493.16;4913101;28;103972;-67
2023/09/30 03:47:43;;;;;;;1100.03;999.90;;;;;;;24.58;57.19;99484.50;4911053;28;103655;-68
2023/09/30 03:50:14;;;;;;;1999.90;999.90;;;;;;;23.91;60.06;99482.53;4908351;28;103219;-67
2023/09/30 03:52:44;;;;;;;1999.90;999.90;;;;;;;24.14;59.45;99470.78;4910229;28;102893;-67
2023/09/30 03:55:15;;;;;;;1150.75;999.90;;;;;;;24.71;57.01;99468.50;4911073;28;102752;-67
2023/09/30 03:57:47;;;;;;;1106.13;999.90;;;;;;;24.78;56.74;99465.91;4910210;28;103839;-67
2023/09/30 04:00:18;;;;;;;897.58;854.95;;;;;;;25.12;56.16;99476.25;4913013;28;103221;-67
2023/09/30 04:02:49;;;;;;;865.47;825.70;;;;;;;25.23;55.44;99481.19;4912796;28;102679;-67
2023/09/30 04:05:26;;;;;;;791.53;757.20;;;;;;;25.07;55.06;99484.91;4915776;28;103194;-68
2023/09/30 04:07:54;;;;;;;1338.75;999.90;;;;;;;23.85;59.65;99491.34;4907311;28;104110;-67
2023/09/30 04:10:22;;;;;;;1999.90;999.90;;;;;;;23.69;62.18;99492.25;4908408;28;103305;-67
2023/09/30 04:12:50;;;;;;;1194.47;999.90;;;;;;;24.63;58.13;99498.28;4916842;28;102864;-67
2023/09/30 04:15:19;;;;;;;876.05;835.47;;;;;;;24.85;55.82;99490.34;4914178;28;102730;-64
2023/09/30 04:17:48;;;;;;;1459.53;999.90;;;;;;;24.00;59.46;99495.78;4913189;28;104503;-67
2023/09/30 04:20:21;;;;;;;1778.43;999.90;;;;;;;24.29;58.73;99492.44;4915309;28;103363;-67
2023/09/30 04:22:50;;;;;;;1999.90;999.90;;;;;;;24.23;58.65;99487.75;4912141;28;104492;-67
2023/09/30 04:25:18;;;;;;;1515.97;999.90;;;;;;;24.55;57.81;99484.84;4916846;28;102773;-67
2023/09/30 04:27:48;;;;;;;1118.18;999.90;;;;;;;24.37;57.24;99489.69;4923023;28;103257;-67
2023/09/30 04:30:18;;;;;;;1454.30;999.90;;;;;;;24.05;58.79;99487.19;4911828;28;103069;-67
2023/09/30 04:32:46;;;;;;;1999.90;999.90;;;;;;;24.19;59.44;99490.00;4914654;28;102641;-67
2023/09/30 04:35:14;;;;;;;1379.13;999.90;;;;;;;24.69;57.55;99486.75;4905147;28;103923;-67
2023/09/30 04:37:45;;;;;;;1060.82;999.90;;;;;;;24.76;56.48;99493.09;4908120;28;103380;-67
2023/09/30 04:40:18;;;;;;;1403.63;999.90;;;;;;;24.51;57.76;99499.72;4905594;28;104288;-67
2023/09/30 04:42:46;;;;;;;1072.63;999.90;;;;;;;24.99;56.81;99505.75;4909159;28;104308;-67
2023/09/30 04:45:16;;;;;;;808.87;773.53;;;;;;;25.16;55.03;99508.13;4912561;28;104421;-67
2023/09/30 04:47:45;;;;;;;1016.23;965.47;;;;;;;24.88;56.48;99500.78;4907691;28;104162;-67
2023/09/30 04:50:16;;;;;;;837.53;799.20;;;;;;;25.11;55.43;99513.25;4913770;28;103239;-67
2023/09/30 04:52:45;;;;;;;872.08;831.28;;;;;;;25.19;55.18;99505.06;4920129;28;102784;-67
2023/09/30 04:55:16;;;;;;;857.08;817.42;;;;;;;25.23;55.27;99510.94;4914636;28;107116;-67
2023/09/30 04:57:45;;;;;;;841.00;802.70;;;;;;;25.16;55.44;99520.81;4906994;28;103306;-67
2023/09/30 05:00:15;;;;;;;1078.35;999.90;;;;;;;24.92;56.31;99519.19;4905785;28;104146;-67
2023/09/30 05:02:44;;;;;;;971.75;921.65;;;;;;;25.08;55.26;99535.25;4909095;28;102780;-67
2023/09/30 05:05:14;;;;;;;957.17;906.67;;;;;;;25.23;55.21;99546.09;4918460;28;103994;-67
2023/09/30 05:07:42;;;;;;;883.20;839.85;;;;;;;25.30;54.21;99538.91;4909671;28;103817;-67
2023/09/30 05:10:13;;;;;;;898.00;853.25;;;;;;;25.25;54.95;99533.22;4922167;28;104385;-67
2023/09/30 05:12:45;;;;;;;855.78;815.22;;;;;;;25.33;54.01;99538.53;4906313;28;102674;-67
2023/09/30 05:15:15;;;;;;;1490.22;999.90;;;;;;;24.31;57.28;99533.59;4909771;28;104408;-68
2023/09/30 05:17:45;;;;;;;1595.67;999.90;;;;;;;24.75;57.05;99545.47;4907270;28;103448;-68
2023/09/30 05:20:13;;;;;;;1272.88;999.90;;;;;;;24.84;56.67;99546.28;4913999;28;103269;-67
2023/09/30 05:22:44;;;;;;;998.47;946.47;;;;;;;25.03;55.59;99547.63;4909682;28;102646;-67
2023/09/30 05:25:13;;;;;;;901.28;857.60;;;;;;;24.93;55.28;99542.47;4911827;28;103481;-68
2023/09/30 05:27:41;;;;;;;874.83;833.70;;;;;;;24.92;54.59;99527.28;4912567;28;104025;-67
2023/09/30 05:30:11;;;;;;;1297.07;999.90;;;;;;;24.91;56.23;99535.56;4914241;28;103393;-67
2023/09/30 05:32:39;;;;;;;1293.97;999.90;;;;;;;24.82;55.86;99525.84;4918343;28;103362;-68
2023/09/30 05:35:12;;;;;;;1319.55;999.90;;;;;;;24.89;55.71;99524.09;4911066;28;102839;-67
2023/09/30 05:37:41;;;;;;;1432.07;999.90;;;;;;;24.86;55.91;99519.06;4911648;28;104004;-67
2023/09/30 05:40:16;;;;;;;1949.68;999.90;;;;;;;24.12;58.26;99531.38;4904803;28;103231;-67
2023/09/30 05:42:45;;;;;;;1715.20;999.90;;;;;;;24.60;57.08;99525.66;4919889;28;102873;-68
2023/09/30 05:45:15;;;;;;;899.97;857.75;;;;;;;24.95;55.80;99517.97;4915145;28;102736;-68
2023/09/30 05:47:44;;;;;;;858.33;818.35;;;;;;;24.79;55.10;99522.50;4906923;28;103968;-68
2023/09/30 05:50:15;;;;;;;1455.18;999.90;;;;;;;24.62;56.77;99530.88;4908272;28;103220;-68
2023/09/30 05:52:45;;;;;;;1663.78;999.90;;;;;;;24.06;57.63;99538.28;4910082;28;102911;-68
2023/09/30 05:55:16;;;;;;;1999.90;999.90;;;;;;;24.16;58.64;99544.34;4918611;28;103014;-68
2023/09/30 05:57:44;;;;;;;1187.65;999.90;;;;;;;24.65;57.10;99552.97;4907388;28;104317;-67
2023/09/30 06:00:20;;;;;;;1276.28;999.90;;;;;;;24.16;58.22;99548.91;4918318;28;103257;-67
2023/09/30 06:02:48;;;;;;;1999.90;999.90;;;;;;;24.14;59.09;99550.94;4910183;28;103377;-67
2023/09/30 06:05:18;;;;;;;1443.93;999.90;;;;;;;24.61;57.65;99548.97;4905126;28;103439;-67
2023/09/30 06:07:46;;;;;;;1396.95;999.90;;;;;;;24.17;58.31;99545.16;4913963;28;103396;-67
2023/09/30 06:10:19;;;;;;;1999.90;999.90;;;;;;;23.98;59.78;99562.63;4910690;28;103242;-67
2023/09/30 06:12:48;;;;;;;1777.70;999.90;;;;;;;24.14;59.20;99567.16;4912105;28;102761;-68
2023/09/30 06:15:21;;;;;;;1999.90;999.90;;;;;;;23.61;61.51;99576.72;4911139;28;103878;-66
2023/09/30 06:17:50;;;;;;;1999.90;999.90;;;;;;;23.32;62.77;99589.06;4909836;28;103317;-66
2023/09/30 06:20:19;;;;;;;1999.90;999.90;;;;;;;23.01;63.88;99591.63;4910035;28;103234;-66
2023/09/30 06:22:49;;;;;;;1999.90;999.90;;;;;;;23.66;62.64;99595.13;4925675;28;102802;-66
2023/09/30 06:25:17;;;;;;;1864.45;999.90;;;;;;;24.02;61.64;99593.66;4911348;28;104101;-66
2023/09/30 06:27:49;;;;;;;1215.00;999.90;;;;;;;24.76;58.50;99582.25;4910350;28;103674;-66
2023/09/30 06:30:20;;;;;;;1039.65;974.42;;;;;;;24.59;58.15;99586.09;4917562;28;104053;-66
2023/09/30 06:32:49;;;;;;;1150.50;999.90;;;;;;;24.51;57.89;99594.25;4916188;28;102790;-66
2023/09/30 06:35:17;;;;;;;1314.53;999.90;;;;;;;24.76;57.67;99595.78;4911607;28;104017;-66
2023/09/30 06:37:49;;;;;;;1294.82;999.90;;;;;;;24.30;58.30;99585.94;4906722;28;103277;-66
2023/09/30 06:40:17;;;;;;;1493.93;999.90;;;;;;;24.43;58.70;99586.19;4905290;28;103316;-66
2023/09/30 06:42:45;;;;;;;1420.40;999.90;;;;;;;24.35;58.92;99588.94;4904696;28;103610;-66
2023/09/30 06:45:13;;;;;;;1681.75;999.90;;;;;;;24.42;59.97;99589.09;4909711;28;102770;-67
2023/09/30 06:47:45;;;;;;;1312.80;999.90;;;;;;;24.78;58.28;99603.72;4915298;28;103358;-66
2023/09/30 06:50:16;;;;;;;873.38;822.33;;;;;;;24.73;57.06;99604.25;4921723;28;103203;-65
2023/09/30 06:52:47;;;;;;;832.42;785.60;;;;;;;25.38;56.00;99604.59;4907697;28;102597;-66
2023/09/30 06:55:16;;;;;;;877.00;826.63;;;;;;;24.47;57.62;99611.84;4910718;28;103410;-66
2023/09/30 06:57:44;;;;;;;906.47;853.40;;;;;;;24.26;58.47;99627.81;4910365;28;103233;-66
2023/09/30 07:00:18;;;;;;;968.88;911.67;;;;;;;24.50;57.21;99626.84;4909573;28;103210;-66
2023/09/30 07:02:51;;;;;;;1445.53;999.90;;;;;;;23.45;61.19;99617.22;4904502;28;102750;-66
2023/09/30 07:05:20;;;;;;;1226.87;999.90;;;;;;;24.58;58.26;99611.44;4903711;28;104538;-66
2023/09/30 07:07:48;;;;;;;856.47;808.72;;;;;;;25.18;56.55;99616.13;4905820;28;103353;-66
2023/09/30 07:10:16;;;;;;;742.78;704.53;;;;;;;25.44;55.27;99605.72;4904420;28;103143;-66
2023/09/30 07:12:44;;;;;;;643.33;611.08;;;;;;;26.07;53.48;99598.97;4903702;28;102649;-66
2023/09/30 07:15:13;;;;;;;606.67;577.22;;;;;;;26.38;51.83;99607.75;4905316;28;103076;-66
2023/09/30 07:17:43;;;;;;;678.73;645.10;;;;;;;25.55;53.43;99597.19;4902056;28;103233;-66
2023/09/30 07:20:14;;;;;;;661.90;628.27;;;;;;;25.43;53.09;99609.47;4900968;28;103166;-66
2023/09/30 07:22:42;;;;;;;612.22;582.30;;;;;;;26.46;51.82;99607.63;4901134;28;102626;-66
2023/09/30 07:25:26;;;;;;;587.17;557.77;;;;;;;26.69;50.99;99616.44;4909329;28;104518;-66
2023/09/30 07:27:54;;;;;;;601.65;571.70;;;;;;;26.64;50.89;99627.00;4905031;28;103264;-66
2023/09/30 07:30:22;;;;;;;674.28;640.83;;;;;;;25.92;53.23;99635.00;4919217;28;103209;-66
2023/09/30 07:32:50;;;;;;;646.70;613.63;;;;;;;25.92;53.18;99643.13;4902799;28;103153;-64
2023/09/30 07:35:19;;;;;;;637.78;605.38;;;;;;;25.75;53.84;99635.34;4900726;28;103993;-64
2023/09/30 07:37:47;;;;;;;529.95;504.48;;;;;;;26.43;51.41;99627.81;4906099;28;103374;-64
2023/09/30 07:40:15;;;;;;;521.45;496.00;;;;;;;26.33;51.79;99629.16;4912340;28;104369;-64
2023/09/30 07:42:46;;;;;;;455.73;433.03;;;;;;;27.00;50.25;99622.41;4903739;28;102717;-64
2023/09/30 07:45:16;;;;;;;446.85;424.30;;;;;;;27.37;49.82;99621.28;4903080;28;104068;-64
2023/09/30 07:47:46;;;;;;;453.47;430.70;;;;;;;27.68;48.25;99626.34;4902944;28;103453;-64
2023/09/30 07:50:14;;;;;;;461.45;438.63;;;;;;;27.21;48.51;99634.28;4908151;28;104364;-64
2023/09/30 07:52:43;;;;;;;502.43;477.20;;;;;;;27.30;48.71;99643.97;4907347;28;103251;-64
2023/09/30 07:55:11;;;;;;;497.73;473.37;;;;;;;25.98;50.48;99656.94;4906589;28;104058;-64
2023/09/30 07:57:42;;;;;;;495.83;471.35;;;;;;;26.54;50.37;99666.28;4910095;28;104220;-66
2023/09/30 08:00:15;;;;;;;467.67;444.42;;;;;;;26.59;49.17;99656.53;4907760;28;103166;-64
2023/09/30 08:02:44;;;;;;;468.48;445.27;;;;;;;27.35;48.49;99646.94;4909231;28;102844;-67
2023/09/30 08:05:12;;;;;;;447.70;425.40;;;;;;;28.00;48.34;99644.75;4914889;28;103782;-67
2023/09/30 08:07:41;;;;;;;466.52;443.48;;;;;;;26.80;49.63;99647.66;4909875;28;104477;-63
2023/09/30 08:10:13;;;;;;;472.92;449.30;;;;;;;26.94;48.91;99644.91;4908273;28;103270;-67
2023/09/30 08:12:42;;;;;;;500.95;476.23;;;;;;;26.31;50.80;99640.16;4913538;28;103053;-67
2023/09/30 08:15:12;;;;;;;474.63;451.25;;;;;;;27.03;48.92;99632.88;4916460;28;103817;-63
2023/09/30 08:17:41;;;;;;;426.27;405.83;;;;;;;28.55;46.59;99624.75;4907100;28;104712;-63
2023/09/30 08:20:10;;;;;;;432.83;411.67;;;;;;;28.86;45.46;99624.25;4909965;28;103863;-63
2023/09/30 08:22:40;;;;;;;419.75;399.40;;;;;;;28.65;46.06;99636.13;4908504;28;102688;-63
2023/09/30 08:25:11;;;;;;;344.23;327.35;;;;;;;29.05;45.37;99638.94;4905983;28;104003;-64
2023/09/30 08:27:39;;;;;;;317.98;302.25;;;;;;;29.05;44.83;99637.06;4902807;28;103931;-63
2023/09/30 08:30:10;;;;;;;336.93;320.00;;;;;;;27.92;46.34;99636.75;4906173;28;103413;-64
2023/09/30 08:32:38;;;;;;;381.50;363.17;;;;;;;27.88;47.37;99632.75;4905912;28;102897;-63
2023/09/30 08:35:07;;;;;;;383.23;364.63;;;;;;;27.99;47.42;99640.34;4904643;28;103718;-63
2023/09/30 08:37:35;;;;;;;358.43;341.10;;;;;;;27.93;46.70;99646.56;4904529;28;103363;-63
2023/09/30 08:40:04;;;;;;;343.83;327.05;;;;;;;27.94;46.69;99637.41;4909067;28;104215;-63
2023/09/30 08:42:34;;;;;;;335.77;319.15;;;;;;;28.55;45.32;99623.91;4905463;28;103080;-63
2023/09/30 08:45:05;;;;;;;374.77;356.05;;;;;;;28.24;45.25;99613.56;4906983;28;103152;-63
2023/09/30 08:47:35;;;;;;;360.35;342.52;;;;;;;28.81;44.38;99621.31;4907825;28;104135;-63
2023/09/30 08:50:06;;;;;;;379.08;360.23;;;;;;;29.00;44.17;99623.22;4910227;28;103032;-63
2023/09/30 08:52:35;;;;;;;400.08;380.05;;;;;;;28.84;43.82;99620.91;4905736;28;103103;-63
2023/09/30 08:55:09;;;;;;;391.10;371.43;;;;;;;29.48;43.27;99631.25;4912011;28;102944;-64
2023/09/30 08:57:40;;;;;;;368.95;350.58;;;;;;;29.65;43.63;99630.63;4917975;28;103781;-64
2023/09/30 09:00:12;;;;;;;412.88;392.25;;;;;;;28.55;45.12;99635.63;4908548;28;103258;-63
2023/09/30 09:02:41;;;;;;;399.08;379.35;;;;;;;29.56;44.02;99615.53;4914962;28;102777;-63
2023/09/30 09:05:11;;;;;;;391.23;371.63;;;;;;;29.47;44.33;99616.81;4911314;28;104012;-63
2023/09/30 09:07:40;;;;;;;412.45;392.35;;;;;;;28.40;46.04;99613.22;4908359;28;103538;-63
2023/09/30 09:10:10;;;;;;;403.30;383.20;;;;;;;28.38;45.17;99622.63;4911920;28;103184;-63
2023/09/30 09:12:40;;;;;;;401.40;381.60;;;;;;;29.31;43.88;99631.66;4909841;28;102947;-63
2023/09/30 09:15:20;;;;;;;405.38;384.83;;;;;;;30.13;42.25;99636.63;4911445;28;102706;-63
2023/09/30 09:17:50;;;;;;;414.80;394.23;;;;;;;30.05;42.05;99636.03;4906658;28;103303;-63
2023/09/30 09:20:22;;;;;;;307.85;292.15;;;;;;;28.18;44.58;99639.66;4907049;28;104191;-63
2023/09/30 09:22:53;;;;;;;283.98;269.90;;;;;;;28.36;43.96;99635.56;4919121;28;102929;-63
2023/09/30 09:25:22;;;;;;;385.30;366.05;;;;;;;27.61;46.36;99634.47;4911154;28;103751;-67
2023/09/30 09:27:55;;;;;;;487.30;461.58;;;;;;;28.60;43.96;99640.47;4913195;28;103847;-67
2023/09/30 09:30:24;;;;;;;514.58;488.38;;;;;;;29.39;42.66;99637.97;4913284;28;103535;-67
2023/09/30 09:33:00;;;;;;;534.77;507.83;;;;;;;29.56;43.39;99639.22;4914983;28;103124;-67
2023/09/30 09:35:30;;;;;;;526.97;501.05;;;;;;;29.66;42.43;99636.91;4913999;28;103923;-67
2023/09/30 09:38:02;;;;;;;569.43;541.13;;;;;;;29.54;42.93;99635.84;4906574;28;103903;-64
2023/09/30 09:40:36;;;;;;;562.95;535.22;;;;;;;30.66;41.99;99622.81;4919338;28;102971;-63
2023/09/30 09:43:06;;;;;;;571.30;543.22;;;;;;;29.43;41.68;99615.56;4903914;28;102753;-63
2023/09/30 09:45:36;;;;;;;602.35;572.72;;;;;;;29.33;42.64;99617.03;4911811;28;103821;-67
2023/09/30 09:48:05;;;;;;;623.53;592.77;;;;;;;29.00;43.16;99612.34;4913615;28;104058;-63
2023/09/30 09:50:35;;;;;;;650.55;618.38;;;;;;;28.89;43.40;99615.69;4912901;28;104199;-63
2023/09/30 09:53:05;;;;;;;609.13;579.72;;;;;;;29.93;42.04;99608.59;4909360;28;104046;-63
2023/09/30 09:55:34;;;;;;;629.50;599.15;;;;;;;29.91;42.30;99618.03;4912535;28;104262;-67
2023/09/30 09:58:04;;;;;;;600.38;571.33;;;;;;;30.96;40.71;99621.22;4909990;28;103298;-67
2023/09/30 10:00:33;;;;;;;632.50;601.97;;;;;;;30.57;40.39;99622.22;4913731;28;103212;-63
2023/09/30 10:03:04;;;;;;;613.10;583.27;;;;;;;30.93;39.76;99621.66;4915399;28;103015;-63
2023/09/30 10:05:33;;;;;;;677.80;645.77;;;;;;;30.10;41.05;99609.81;4910818;28;102837;-63
2023/09/30 10:08:07;;;;;;;647.05;617.58;;;;;;;29.80;41.32;99608.63;4908750;28;103307;-63
2023/09/30 10:10:37;;;;;;;617.80;590.42;;;;;;;30.99;40.41;99616.13;4906729;28;103170;-63
2023/09/30 10:13:05;;;;;;;605.13;578.30;;;;;;;30.98;41.02;99609.03;4906119;28;103178;-62
2023/09/30 10:15:52;;;;;;;521.88;499.92;;;;;;;31.26;40.56;99602.31;4904689;28;103925;-63
2023/09/30 10:18:20;;;;;;;514.38;493.45;;;;;;;31.62;39.36;99598.84;4910072;28;104187;-63
2023/09/30 10:20:49;;;;;;;535.30;513.13;;;;;;;30.98;39.30;99592.66;4906910;28;103196;-63
2023/09/30 10:23:25;;;;;;;477.60;458.77;;;;;;;31.34;39.38;99585.66;4910226;28;103003;-63
2023/09/30 10:26:15;;;;;;;385.08;370.35;;;;;;;31.76;38.92;99589.47;4905593;28;103122;-63
2023/09/30 10:28:46;;;;;;;89.07;85.07;;;;;;;29.70;41.34;99597.31;4907827;28;104058;-63
2023/09/30 10:31:19;;;;;;;260.90;250.05;;;;;;;29.94;40.83;99599.38;4906455;28;103259;-63
2023/09/30 10:34:22;;;;;;;138.33;131.93;;;;;;;29.20;40.79;99607.78;4908593;28;102801;-62
2023/09/30 10:36:53;;;;;;;168.60;161.73;;;;;;;27.17;44.60;99605.88;4911105;28;104237;-63
2023/09/30 10:39:55;;;;;;;122.97;117.78;;;;;;;29.02;42.79;99598.56;4899443;28;104089;-63
2023/09/30 10:42:49;;;;;;;76.78;72.93;;;;;;;29.45;41.67;99593.56;4910359;28;103329;-63
2023/09/30 10:45:44;;;;;;;89.85;85.95;;;;;;;27.46;44.04;99578.59;4908352;28;102759;-67
2023/09/30 10:48:36;;;;;;;57.55;54.70;;;;;;;30.19;40.33;99573.09;4909940;28;103993;-67
2023/09/30 10:51:16;;;;;;;55.67;53.08;;;;;;;30.20;39.66;99576.66;4905119;28;103288;-67
2023/09/30 10:53:51;;;;;;;55.10;52.50;;;;;;;30.70;39.94;99573.09;4910371;28;103378;-67
2023/09/30 10:56:20;;;;;;;86.60;82.82;;;;;;;30.78;38.50;99564.63;4922342;28;102735;-67
2023/09/30 10:58:52;;;;;;;77.80;74.40;;;;;;;31.13;38.49;99570.47;4927036;28;104254;-67
2023/09/30 11:01:21;;;;;;;71.30;68.18;;;;;;;30.84;39.15;99569.22;4919346;28;104293;-67
2023/09/30 11:03:58;;;;;;;69.88;66.85;;;;;;;30.75;39.39;99569.69;4909776;28;103197;-67
2023/09/30 11:06:27;;;;;;;158.18;151.70;;;;;;;31.20;38.00;99568.56;4906950;28;102813;-67